Upland, PA

11:43 AM EDT on May 06, 2015 (GMT -0400)
New Castle County | | Change Station
CLOSE
Current Station
Airport
Location: Wilmington,
Elevation: 79 ft
Nearby Weather Stations

Elev 79 ft 39.67 °N, 75.61 °W | Updated 52 minutes ago

Overcast
Overcast
73 °F
Feels Like 73 °F
N
18
Wind Variable Wind from NE
Gusts 24 mph

Today
High -- | Low -- °F
--% Chance of Precip.
Yesterday
High -- | Low -- °F
Precip. -- in
5:56 AM 8:00 PM
Waning Gibbous, 93% visible
Pressure 30.26 in
Visibility 10.0 miles
Clouds Clear
Dew Point 47 °F
Humidity 39%
Rainfall 0.03 in
Snow Depth Not available.
UV 8 out of 12
Pollen 7.70 out of 12
Air Quality Not available.
Flu Activity Sporadic
METAR KILG 061451Z 05016G21KT 10SM CLR 23/08 A3026 RMK AO2 SLP246 T02280083 51004

More Conditions Fewer Conditions

Pressure 30.26 in
Visibility 10.0 miles
Clouds Clear
Dew Point 47 °F
Humidity 39%
Rainfall 0.03 in
Snow Depth Not available.
UV 8 out of 12
Pollen 7.70 out of 12
Air Quality Not available.
Flu Activity Sporadic
METAR KILG 061451Z 05016G21KT 10SM CLR 23/08 A3026 RMK AO2 SLP246 T02280083 51004

More Conditions Fewer Conditions

Nowcast | as of 11:02 am EDT on May 6, 2015

Showers will continue to move across the area through the early afternoon hours. Most rain will remain light, although some pockets of moderate to heavy rain may also occur. A rumble of thunder cannot be ruled out.

×

10-Day Weather Forecast

Almanac

Astronomy

May. 06, 2015 Rise Set
Actual Time
Civil Twilight
Nautical Twilight
Astronomical Twilight
Moon
Length of Visible Light
Length of Day
Tomorrow will be .
, % of the Moon is Illuminated

Today's Extremes

State Highs State Lows

Community

WunderPhotos

Upload Photos

1,818,938 photos uploaded!

WunderBlogs® & News

Nearby

Air Quality

  Air Quality AQ Index Pollutant
Not available.

Snow Depth

Station Depth Elevation

Earthquake Activity

City Distance Mag. Time & Date
Minimum magnitude displayed is 2.5.

Coastal Water Temperatures

Place Temperature

Stations

Nearby Weather Stations

Station Location Temp. Windchill Dew Point Humidity Wind Precip. Elev Updated Type